< < Back
Terminal Aerodrome Forecast


Current Version              Previous Versions:   1  2  3  4  5  6  7  8  9  

Terminal Aerodrome Forecast

190
FTUS42 KTAE 262339
TAFDHN
TAF
KDHN 262339Z 2700/2724 20008KT P6SM SCT010 BKN250
     FM270600 26010KT 6SM BR BKN005
     FM271400 33015G20KT P6SM BKN010
     FM271800 34015KT P6SM SKC=

Latest METAR

648
SAUS70 KWBC 270300 RRH
MTRDHN
METAR KDHN 270253Z AUTO 22007KT 10SM CLR 18/17 A2989 RMK AO2 SLP116
T01830167 50015 $


USA.gov is the U.S. government's official web portal to all federal, state and local government web resources and services.